sensor_id;sensor_type;location;lat;lon;timestamp;P1;P2;P0
65574;PMS5003;52216;54.942;73.394;2023-02-28T00:00:43;4.00;2.00;0.00
65574;PMS5003;52216;54.942;73.394;2023-02-28T00:03:47;4.00;4.00;0.00
65574;PMS5003;52216;54.942;73.394;2023-02-28T00:06:50;4.00;4.00;0.25
65574;PMS5003;52216;54.942;73.394;2023-02-28T00:10:04;3.25;3.00;1.00
65574;PMS5003;52216;54.942;73.394;2023-02-28T00:13:09;5.00;5.00;2.00
65574;PMS5003;52216;54.942;73.394;2023-02-28T00:16:18;4.25;4.00;2.00
65574;PMS5003;52216;54.942;73.394;2023-02-28T00:19:21;6.00;4.25;2.00
65574;PMS5003;52216;54.942;73.394;2023-02-28T00:22:35;3.75;3.75;0.75
65574;PMS5003;52216;54.942;73.394;2023-02-28T00:25:38;6.75;4.00;2.00
65574;PMS5003;52216;54.942;73.394;2023-02-28T00:28:46;4.25;4.00;2.00
65574;PMS5003;52216;54.942;73.394;2023-02-28T00:31:51;6.00;6.00;2.00
65574;PMS5003;52216;54.942;73.394;2023-02-28T00:35:25;6.00;4.50;2.00
65574;PMS5003;52216;54.942;73.394;2023-02-28T00:38:28;5.00;5.00;2.00
65574;PMS5003;52216;54.942;73.394;2023-02-28T00:41:32;5.00;5.00;2.00
65574;PMS5003;52216;54.942;73.394;2023-02-28T00:44:40;7.00;7.00;2.00
65574;PMS5003;52216;54.942;73.394;2023-02-28T00:47:53;5.50;4.00;1.00
65574;PMS5003;52216;54.942;73.394;2023-02-28T00:50:57;8.40;6.60;2.40
65574;PMS5003;52216;54.942;73.394;2023-02-28T00:54:06;10.75;6.75;4.00
65574;PMS5003;52216;54.942;73.394;2023-02-28T00:57:13;7.00;4.00;2.00
65574;PMS5003;52216;54.942;73.394;2023-02-28T01:00:21;7.00;5.00;2.00
65574;PMS5003;52216;54.942;73.394;2023-02-28T01:03:29;6.00;5.50;2.00
65574;PMS5003;52216;54.942;73.394;2023-02-28T01:06:32;7.00;7.00;3.00
65574;PMS5003;52216;54.942;73.394;2023-02-28T01:09:36;8.00;7.00;3.00
65574;PMS5003;52216;54.942;73.394;2023-02-28T01:12:40;7.25;7.25;4.00
65574;PMS5003;52216;54.942;73.394;2023-02-28T01:15:51;9.40;7.00;4.20
65574;PMS5003;52216;54.942;73.394;2023-02-28T01:19:00;9.00;7.00;3.75
65574;PMS5003;52216;54.942;73.394;2023-02-28T01:22:03;10.00;8.00;3.00
65574;PMS5003;52216;54.942;73.394;2023-02-28T01:25:17;12.56;8.89;3.78
65574;PMS5003;52216;54.942;73.394;2023-02-28T01:28:19;13.00;12.00;5.00
65574;PMS5003;52216;54.942;73.394;2023-02-28T01:31:22;12.00;10.00;3.00
65574;PMS5003;52216;54.942;73.394;2023-02-28T01:34:25;11.00;9.00;4.00
65574;PMS5003;52216;54.942;73.394;2023-02-28T01:37:31;11.75;8.25;4.50
65574;PMS5003;52216;54.942;73.394;2023-02-28T01:40:34;10.00;8.00;3.00
65574;PMS5003;52216;54.942;73.394;2023-02-28T01:46:56;8.25;6.50;3.00
65574;PMS5003;52216;54.942;73.394;2023-02-28T01:50:11;13.50;10.50;4.75
65574;PMS5003;52216;54.942;73.394;2023-02-28T01:53:17;12.00;10.00;4.00
65574;PMS5003;52216;54.942;73.394;2023-02-28T01:56:27;12.00;8.00;3.75
65574;PMS5003;52216;54.942;73.394;2023-02-28T01:59:33;8.50;6.50;4.00
65574;PMS5003;52216;54.942;73.394;2023-02-28T02:02:38;10.50;10.00;4.00
65574;PMS5003;52216;54.942;73.394;2023-02-28T02:05:52;9.00;7.00;3.00
65574;PMS5003;52216;54.942;73.394;2023-02-28T02:08:55;10.00;8.75;4.00
65574;PMS5003;52216;54.942;73.394;2023-02-28T02:12:05;12.00;10.00;5.00
65574;PMS5003;52216;54.942;73.394;2023-02-28T02:15:31;12.00;7.50;4.00
65574;PMS5003;52216;54.942;73.394;2023-02-28T02:18:43;9.75;7.25;4.75
65574;PMS5003;52216;54.942;73.394;2023-02-28T02:38:29;5.00;5.00;2.00
65574;PMS5003;52216;54.942;73.394;2023-02-28T02:44:50;4.00;4.00;1.75
65574;PMS5003;52216;54.942;73.394;2023-02-28T02:48:06;4.00;4.00;2.00
65574;PMS5003;52216;54.942;73.394;2023-02-28T02:51:11;8.00;6.75;3.00
65574;PMS5003;52216;54.942;73.394;2023-02-28T02:54:19;5.50;4.00;2.00
65574;PMS5003;52216;54.942;73.394;2023-02-28T02:57:27;7.00;6.00;2.00
65574;PMS5003;52216;54.942;73.394;2023-02-28T03:00:34;6.00;5.00;2.00
65574;PMS5003;52216;54.942;73.394;2023-02-28T03:03:45;5.25;4.00;2.00
65574;PMS5003;52216;54.942;73.394;2023-02-28T03:06:54;6.00;4.00;2.00
65574;PMS5003;52216;54.942;73.394;2023-02-28T03:09:58;6.00;5.25;1.00
65574;PMS5003;52216;54.942;73.394;2023-02-28T03:25:59;5.50;4.00;1.75
65574;PMS5003;52216;54.942;73.394;2023-02-28T03:29:15;5.00;4.00;2.00
65574;PMS5003;52216;54.942;73.394;2023-02-28T03:32:28;4.00;4.00;1.00
65574;PMS5003;52216;54.942;73.394;2023-02-28T03:35:34;4.50;4.00;0.00
65574;PMS5003;52216;54.942;73.394;2023-02-28T03:38:49;6.00;6.00;2.00
65574;PMS5003;52216;54.942;73.394;2023-02-28T03:41:59;6.00;6.00;2.00
65574;PMS5003;52216;54.942;73.394;2023-02-28T03:45:04;5.00;4.00;2.00
65574;PMS5003;52216;54.942;73.394;2023-02-28T03:51:17;6.00;4.75;2.75
65574;PMS5003;52216;54.942;73.394;2023-02-28T03:54:24;6.50;5.50;2.00
65574;PMS5003;52216;54.942;73.394;2023-02-28T04:00:39;9.00;6.25;3.00
65574;PMS5003;52216;54.942;73.394;2023-02-28T04:03:43;4.00;4.00;2.00
65574;PMS5003;52216;54.942;73.394;2023-02-28T04:06:52;6.75;6.00;2.00
65574;PMS5003;52216;54.942;73.394;2023-02-28T04:10:03;4.00;4.00;2.00
65574;PMS5003;52216;54.942;73.394;2023-02-28T04:13:12;5.00;4.00;2.00
65574;PMS5003;52216;54.942;73.394;2023-02-28T04:16:17;5.00;4.00;2.00
65574;PMS5003;52216;54.942;73.394;2023-02-28T04:19:30;7.00;5.00;2.00
65574;PMS5003;52216;54.942;73.394;2023-02-28T04:22:32;5.00;5.00;2.00
65574;PMS5003;52216;54.942;73.394;2023-02-28T04:25:35;5.00;4.75;2.00
65574;PMS5003;52216;54.942;73.394;2023-02-28T04:28:37;5.00;3.75;2.00
65574;PMS5003;52216;54.942;73.394;2023-02-28T04:31:46;6.00;4.00;2.00
65574;PMS5003;52216;54.942;73.394;2023-02-28T04:34:49;5.00;4.75;2.00
65574;PMS5003;52216;54.942;73.394;2023-02-28T04:37:52;6.00;5.00;2.00
65574;PMS5003;52216;54.942;73.394;2023-02-28T04:41:01;7.00;5.00;2.00
65574;PMS5003;52216;54.942;73.394;2023-02-28T04:44:04;7.00;5.00;3.75
65574;PMS5003;52216;54.942;73.394;2023-02-28T04:47:07;9.00;7.00;2.00
65574;PMS5003;52216;54.942;73.394;2023-02-28T04:50:10;7.00;6.25;2.00
65574;PMS5003;52216;54.942;73.394;2023-02-28T04:53:13;5.75;5.00;2.00
65574;PMS5003;52216;54.942;73.394;2023-02-28T04:56:17;5.00;5.00;2.00
65574;PMS5003;52216;54.942;73.394;2023-02-28T04:59:31;5.50;4.75;2.00
65574;PMS5003;52216;54.942;73.394;2023-02-28T05:02:34;6.75;5.50;2.00
65574;PMS5003;52216;54.942;73.394;2023-02-28T05:05:38;5.00;5.00;2.00
65574;PMS5003;52216;54.942;73.394;2023-02-28T05:08:41;6.00;5.00;2.00
65574;PMS5003;52216;54.942;73.394;2023-02-28T05:11:44;7.75;7.00;2.00
65574;PMS5003;52216;54.942;73.394;2023-02-28T05:14:58;4.75;4.00;2.00
65574;PMS5003;52216;54.942;73.394;2023-02-28T05:17:59;3.75;3.75;2.00
65574;PMS5003;52216;54.942;73.394;2023-02-28T05:24:49;7.00;5.00;2.50
65574;PMS5003;52216;54.942;73.394;2023-02-28T05:27:52;7.00;6.00;3.25
65574;PMS5003;52216;54.942;73.394;2023-02-28T05:31:00;7.00;6.00;3.00
65574;PMS5003;52216;54.942;73.394;2023-02-28T05:34:04;7.00;5.00;2.00
65574;PMS5003;52216;54.942;73.394;2023-02-28T05:37:11;8.00;7.00;3.00
65574;PMS5003;52216;54.942;73.394;2023-02-28T05:40:25;10.00;7.67;3.00
65574;PMS5003;52216;54.942;73.394;2023-02-28T05:43:27;8.00;5.50;3.00
65574;PMS5003;52216;54.942;73.394;2023-02-28T05:46:30;10.75;7.75;3.25
65574;PMS5003;52216;54.942;73.394;2023-02-28T05:49:33;13.00;9.50;2.75
65574;PMS5003;52216;54.942;73.394;2023-02-28T05:52:42;11.75;8.00;3.00
65574;PMS5003;52216;54.942;73.394;2023-02-28T05:55:50;10.00;7.00;3.00
65574;PMS5003;52216;54.942;73.394;2023-02-28T05:58:54;8.00;5.25;3.00
65574;PMS5003;52216;54.942;73.394;2023-02-28T06:01:57;11.50;9.00;4.00
65574;PMS5003;52216;54.942;73.394;2023-02-28T06:05:00;12.00;8.00;4.00
65574;PMS5003;52216;54.942;73.394;2023-02-28T06:08:03;12.00;10.00;4.00
65574;PMS5003;52216;54.942;73.394;2023-02-28T06:11:07;13.00;11.50;4.25
65574;PMS5003;52216;54.942;73.394;2023-02-28T06:14:17;15.00;13.00;5.00
65574;PMS5003;52216;54.942;73.394;2023-02-28T06:17:21;13.00;11.00;4.00
65574;PMS5003;52216;54.942;73.394;2023-02-28T06:20:24;15.25;13.00;5.00
65574;PMS5003;52216;54.942;73.394;2023-02-28T06:23:29;11.00;10.33;4.00
65574;PMS5003;52216;54.942;73.394;2023-02-28T06:26:31;11.00;10.00;3.00
65574;PMS5003;52216;54.942;73.394;2023-02-28T06:29:34;10.00;8.00;4.00
65574;PMS5003;52216;54.942;73.394;2023-02-28T06:32:48;12.00;8.00;4.00
65574;PMS5003;52216;54.942;73.394;2023-02-28T06:35:57;11.00;8.00;3.00
65574;PMS5003;52216;54.942;73.394;2023-02-28T06:38:58;10.00;7.25;2.00
65574;PMS5003;52216;54.942;73.394;2023-02-28T06:42:06;8.75;7.50;3.00
65574;PMS5003;52216;54.942;73.394;2023-02-28T06:45:10;6.50;6.00;2.00
65574;PMS5003;52216;54.942;73.394;2023-02-28T06:48:20;8.00;8.00;3.00
65574;PMS5003;52216;54.942;73.394;2023-02-28T06:51:26;7.25;7.00;3.00
65574;PMS5003;52216;54.942;73.394;2023-02-28T06:54:39;8.00;7.25;3.00
65574;PMS5003;52216;54.942;73.394;2023-02-28T06:57:43;6.00;6.00;2.00
65574;PMS5003;52216;54.942;73.394;2023-02-28T07:00:52;6.00;5.00;2.00
65574;PMS5003;52216;54.942;73.394;2023-02-28T07:03:59;5.00;4.75;2.00
65574;PMS5003;52216;54.942;73.394;2023-02-28T07:07:03;6.25;5.25;3.00
65574;PMS5003;52216;54.942;73.394;2023-02-28T07:10:06;8.00;7.00;4.00
65574;PMS5003;52216;54.942;73.394;2023-02-28T07:13:08;7.00;6.00;2.00
65574;PMS5003;52216;54.942;73.394;2023-02-28T07:16:16;7.00;6.25;2.00
65574;PMS5003;52216;54.942;73.394;2023-02-28T07:19:20;5.00;5.00;2.00
65574;PMS5003;52216;54.942;73.394;2023-02-28T07:22:23;7.50;5.00;2.00
65574;PMS5003;52216;54.942;73.394;2023-02-28T07:25:28;8.00;6.75;3.00
65574;PMS5003;52216;54.942;73.394;2023-02-28T07:28:34;7.00;6.00;1.00
65574;PMS5003;52216;54.942;73.394;2023-02-28T07:31:38;5.50;5.50;1.00
65574;PMS5003;52216;54.942;73.394;2023-02-28T07:34:51;5.00;5.00;2.00
65574;PMS5003;52216;54.942;73.394;2023-02-28T07:37:54;5.00;5.00;2.00
65574;PMS5003;52216;54.942;73.394;2023-02-28T07:40:57;5.00;4.00;2.00
65574;PMS5003;52216;54.942;73.394;2023-02-28T07:44:01;9.00;8.00;2.00
65574;PMS5003;52216;54.942;73.394;2023-02-28T07:47:04;8.00;5.00;2.00
65574;PMS5003;52216;54.942;73.394;2023-02-28T07:50:08;8.00;5.25;2.00
65574;PMS5003;52216;54.942;73.394;2023-02-28T07:53:13;8.00;7.00;3.50
65574;PMS5003;52216;54.942;73.394;2023-02-28T07:56:21;6.00;6.00;2.50
65574;PMS5003;52216;54.942;73.394;2023-02-28T07:59:24;7.00;6.50;2.00
65574;PMS5003;52216;54.942;73.394;2023-02-28T08:02:27;7.00;6.00;3.25
65574;PMS5003;52216;54.942;73.394;2023-02-28T08:05:31;7.50;7.00;2.00
65574;PMS5003;52216;54.942;73.394;2023-02-28T08:08:40;8.75;8.00;2.00
65574;PMS5003;52216;54.942;73.394;2023-02-28T08:11:48;11.00;7.50;2.00
65574;PMS5003;52216;54.942;73.394;2023-02-28T08:14:52;10.50;7.00;3.00
65574;PMS5003;52216;54.942;73.394;2023-02-28T08:18:00;8.50;6.00;2.00
65574;PMS5003;52216;54.942;73.394;2023-02-28T08:21:07;10.67;7.67;3.00
65574;PMS5003;52216;54.942;73.394;2023-02-28T08:24:09;13.00;10.00;4.00
65574;PMS5003;52216;54.942;73.394;2023-02-28T08:27:12;10.00;7.00;2.00
65574;PMS5003;52216;54.942;73.394;2023-02-28T08:30:21;9.00;6.00;1.00
65574;PMS5003;52216;54.942;73.394;2023-02-28T08:33:25;7.00;7.00;2.00
65574;PMS5003;52216;54.942;73.394;2023-02-28T08:36:29;7.75;6.50;3.00
65574;PMS5003;52216;54.942;73.394;2023-02-28T08:39:35;9.75;7.00;3.00
65574;PMS5003;52216;54.942;73.394;2023-02-28T08:42:39;10.25;6.25;2.00
65574;PMS5003;52216;54.942;73.394;2023-02-28T08:45:42;11.50;8.00;3.00
65574;PMS5003;52216;54.942;73.394;2023-02-28T08:48:45;13.00;10.25;5.00
65574;PMS5003;52216;54.942;73.394;2023-02-28T08:51:49;13.00;11.00;4.00
65574;PMS5003;52216;54.942;73.394;2023-02-28T08:54:52;11.00;10.00;5.00
65574;PMS5003;52216;54.942;73.394;2023-02-28T08:57:55;10.00;9.50;4.75
65574;PMS5003;52216;54.942;73.394;2023-02-28T09:01:10;11.00;9.00;3.00
65574;PMS5003;52216;54.942;73.394;2023-02-28T09:04:24;12.00;10.00;4.00
65574;PMS5003;52216;54.942;73.394;2023-02-28T09:07:32;9.00;7.00;3.00
65574;PMS5003;52216;54.942;73.394;2023-02-28T09:10:37;7.75;7.75;3.00
65574;PMS5003;52216;54.942;73.394;2023-02-28T09:13:45;7.00;5.00;2.50
65574;PMS5003;52216;54.942;73.394;2023-02-28T09:16:58;7.00;6.50;2.75
65574;PMS5003;52216;54.942;73.394;2023-02-28T09:20:01;9.50;9.00;5.00
65574;PMS5003;52216;54.942;73.394;2023-02-28T09:23:12;9.00;8.00;5.00
65574;PMS5003;52216;54.942;73.394;2023-02-28T09:26:26;8.00;7.00;4.00
65574;PMS5003;52216;54.942;73.394;2023-02-28T09:29:28;11.00;9.50;5.00
65574;PMS5003;52216;54.942;73.394;2023-02-28T09:32:32;10.00;7.00;2.00
65574;PMS5003;52216;54.942;73.394;2023-02-28T09:35:35;10.00;7.00;3.00
65574;PMS5003;52216;54.942;73.394;2023-02-28T09:38:39;10.00;7.00;2.25
65574;PMS5003;52216;54.942;73.394;2023-02-28T09:41:44;10.00;7.00;2.00
65574;PMS5003;52216;54.942;73.394;2023-02-28T09:45:05;10.00;7.00;2.00
65574;PMS5003;52216;54.942;73.394;2023-02-28T09:48:20;9.00;7.00;3.00
65574;PMS5003;52216;54.942;73.394;2023-02-28T09:51:28;8.00;7.50;3.00
65574;PMS5003;52216;54.942;73.394;2023-02-28T09:54:33;9.00;7.00;2.00
65574;PMS5003;52216;54.942;73.394;2023-02-28T09:57:47;9.00;8.00;3.00
65574;PMS5003;52216;54.942;73.394;2023-02-28T10:01:03;10.00;10.00;3.00
65574;PMS5003;52216;54.942;73.394;2023-02-28T10:10:55;11.75;9.25;4.00
65574;PMS5003;52216;54.942;73.394;2023-02-28T10:14:01;10.00;7.75;3.00
65574;PMS5003;52216;54.942;73.394;2023-02-28T10:17:09;10.00;7.75;3.25
65574;PMS5003;52216;54.942;73.394;2023-02-28T10:20:19;10.00;8.75;3.00
65574;PMS5003;52216;54.942;73.394;2023-02-28T10:23:25;10.00;8.00;3.00
65574;PMS5003;52216;54.942;73.394;2023-02-28T10:26:28;10.00;8.00;3.00
65574;PMS5003;52216;54.942;73.394;2023-02-28T10:29:33;9.00;7.00;2.00
65574;PMS5003;52216;54.942;73.394;2023-02-28T10:32:43;7.50;6.50;3.00
65574;PMS5003;52216;54.942;73.394;2023-02-28T10:35:51;11.50;11.00;5.50
65574;PMS5003;52216;54.942;73.394;2023-02-28T10:38:55;50.33;40.33;23.00
65574;PMS5003;52216;54.942;73.394;2023-02-28T10:41:58;48.75;38.75;23.25
65574;PMS5003;52216;54.942;73.394;2023-02-28T10:45:32;35.00;28.00;16.00
65574;PMS5003;52216;54.942;73.394;2023-02-28T10:48:36;12.00;11.00;3.50
65574;PMS5003;52216;54.942;73.394;2023-02-28T10:51:39;8.00;5.50;2.00
65574;PMS5003;52216;54.942;73.394;2023-02-28T10:54:43;5.75;5.00;2.00
65574;PMS5003;52216;54.942;73.394;2023-02-28T10:57:56;6.25;6.25;3.00
65574;PMS5003;52216;54.942;73.394;2023-02-28T11:01:00;8.00;7.00;1.00
65574;PMS5003;52216;54.942;73.394;2023-02-28T11:04:20;8.00;7.00;2.00
65574;PMS5003;52216;54.942;73.394;2023-02-28T11:07:44;8.00;7.00;3.00
65574;PMS5003;52216;54.942;73.394;2023-02-28T11:11:00;7.00;6.25;3.00
65574;PMS5003;52216;54.942;73.394;2023-02-28T11:14:06;7.25;7.00;2.00
65574;PMS5003;52216;54.942;73.394;2023-02-28T11:17:29;6.00;5.00;3.00
65574;PMS5003;52216;54.942;73.394;2023-02-28T11:20:41;8.00;7.00;2.50
65574;PMS5003;52216;54.942;73.394;2023-02-28T11:23:50;11.00;8.00;3.00
65574;PMS5003;52216;54.942;73.394;2023-02-28T11:26:54;8.25;8.00;3.75
65574;PMS5003;52216;54.942;73.394;2023-02-28T11:30:03;6.00;6.00;3.00
65574;PMS5003;52216;54.942;73.394;2023-02-28T11:36:35;7.75;7.75;4.00
65574;PMS5003;52216;54.942;73.394;2023-02-28T11:39:54;7.75;6.25;2.50
65574;PMS5003;52216;54.942;73.394;2023-02-28T11:43:03;10.00;8.25;3.00
65574;PMS5003;52216;54.942;73.394;2023-02-28T11:55:39;10.00;8.00;4.00
65574;PMS5003;52216;54.942;73.394;2023-02-28T11:58:50;9.75;7.00;3.00
65574;PMS5003;52216;54.942;73.394;2023-02-28T12:11:54;7.00;6.25;2.00
65574;PMS5003;52216;54.942;73.394;2023-02-28T12:21:17;8.40;6.40;2.00
65574;PMS5003;52216;54.942;73.394;2023-02-28T12:27:30;8.25;7.00;2.00
65574;PMS5003;52216;54.942;73.394;2023-02-28T12:30:48;7.75;5.00;2.25
65574;PMS5003;52216;54.942;73.394;2023-02-28T12:33:53;7.75;7.00;3.00
65574;PMS5003;52216;54.942;73.394;2023-02-28T12:37:00;9.00;7.00;2.00
65574;PMS5003;52216;54.942;73.394;2023-02-28T12:40:09;9.00;6.75;3.00
65574;PMS5003;52216;54.942;73.394;2023-02-28T12:43:27;7.25;6.25;3.00
65574;PMS5003;52216;54.942;73.394;2023-02-28T12:46:37;7.75;7.75;2.00
65574;PMS5003;52216;54.942;73.394;2023-02-28T12:49:48;7.75;5.00;2.00
65574;PMS5003;52216;54.942;73.394;2023-02-28T12:53:04;6.00;5.00;2.00
65574;PMS5003;52216;54.942;73.394;2023-02-28T12:56:15;7.00;5.50;2.00
65574;PMS5003;52216;54.942;73.394;2023-02-28T13:11:59;7.00;5.00;2.50
65574;PMS5003;52216;54.942;73.394;2023-02-28T13:15:04;7.00;6.00;3.00
65574;PMS5003;52216;54.942;73.394;2023-02-28T13:18:27;7.00;6.00;2.00
65574;PMS5003;52216;54.942;73.394;2023-02-28T13:21:30;6.00;6.00;2.00
65574;PMS5003;52216;54.942;73.394;2023-02-28T13:27:56;7.00;6.00;3.00
65574;PMS5003;52216;54.942;73.394;2023-02-28T13:31:09;6.25;5.50;3.00
65574;PMS5003;52216;54.942;73.394;2023-02-28T13:34:13;7.00;5.00;2.00
65574;PMS5003;52216;54.942;73.394;2023-02-28T13:40:31;5.25;5.00;2.00
65574;PMS5003;52216;54.942;73.394;2023-02-28T13:50:19;7.00;5.00;1.00
65574;PMS5003;52216;54.942;73.394;2023-02-28T13:53:39;6.00;5.00;2.00
65574;PMS5003;52216;54.942;73.394;2023-02-28T14:00:28;11.00;8.00;3.00
65574;PMS5003;52216;54.942;73.394;2023-02-28T14:06:53;6.00;5.00;2.00
65574;PMS5003;52216;54.942;73.394;2023-02-28T14:10:08;7.25;6.50;4.00
65574;PMS5003;52216;54.942;73.394;2023-02-28T14:16:46;8.00;7.00;3.00
65574;PMS5003;52216;54.942;73.394;2023-02-28T14:20:00;10.00;10.00;3.00
65574;PMS5003;52216;54.942;73.394;2023-02-28T14:26:53;10.00;8.00;4.00
65574;PMS5003;52216;54.942;73.394;2023-02-28T14:30:11;7.75;6.00;3.00
65574;PMS5003;52216;54.942;73.394;2023-02-28T14:33:29;5.00;5.00;2.00
65574;PMS5003;52216;54.942;73.394;2023-02-28T14:36:36;6.25;6.00;2.00
65574;PMS5003;52216;54.942;73.394;2023-02-28T14:39:40;7.00;6.50;3.00
65574;PMS5003;52216;54.942;73.394;2023-02-28T14:42:56;7.75;7.00;2.00
65574;PMS5003;52216;54.942;73.394;2023-02-28T14:46:00;10.00;6.00;2.00
65574;PMS5003;52216;54.942;73.394;2023-02-28T14:49:05;10.00;7.75;2.50
65574;PMS5003;52216;54.942;73.394;2023-02-28T14:52:21;12.00;10.00;4.00
65574;PMS5003;52216;54.942;73.394;2023-02-28T14:55:30;13.00;11.00;5.00
65574;PMS5003;52216;54.942;73.394;2023-02-28T14:58:50;12.75;9.75;3.00
65574;PMS5003;52216;54.942;73.394;2023-02-28T15:05:29;9.25;8.00;3.00
65574;PMS5003;52216;54.942;73.394;2023-02-28T15:08:43;9.50;8.00;4.00
65574;PMS5003;52216;54.942;73.394;2023-02-28T15:11:49;10.00;8.50;3.75
65574;PMS5003;52216;54.942;73.394;2023-02-28T15:14:53;10.00;9.00;4.00
65574;PMS5003;52216;54.942;73.394;2023-02-28T15:17:56;13.00;10.00;4.00
65574;PMS5003;52216;54.942;73.394;2023-02-28T15:21:13;14.00;11.00;2.33
65574;PMS5003;52216;54.942;73.394;2023-02-28T15:24:59;13.00;10.00;4.00
65574;PMS5003;52216;54.942;73.394;2023-02-28T15:27:47;13.00;8.00;2.75
65574;PMS5003;52216;54.942;73.394;2023-02-28T15:30:52;13.00;8.00;3.25
65574;PMS5003;52216;54.942;73.394;2023-02-28T15:33:57;8.00;6.25;3.00
65574;PMS5003;52216;54.942;73.394;2023-02-28T15:37:00;11.00;9.00;2.00
65574;PMS5003;52216;54.942;73.394;2023-02-28T15:40:23;12.00;7.75;2.00
65574;PMS5003;52216;54.942;73.394;2023-02-28T15:43:30;12.00;8.00;3.00
65574;PMS5003;52216;54.942;73.394;2023-02-28T15:46:34;10.00;8.00;2.00
65574;PMS5003;52216;54.942;73.394;2023-02-28T15:50:20;9.50;7.00;2.00
65574;PMS5003;52216;54.942;73.394;2023-02-28T15:53:14;9.75;8.00;3.75
65574;PMS5003;52216;54.942;73.394;2023-02-28T15:56:31;10.00;10.00;5.00
65574;PMS5003;52216;54.942;73.394;2023-02-28T15:59:35;9.00;8.00;3.00
65574;PMS5003;52216;54.942;73.394;2023-02-28T16:02:40;10.00;8.00;3.00
65574;PMS5003;52216;54.942;73.394;2023-02-28T16:05:44;8.00;6.00;2.00
65574;PMS5003;52216;54.942;73.394;2023-02-28T16:08:47;8.00;7.00;2.75
65574;PMS5003;52216;54.942;73.394;2023-02-28T16:12:02;8.50;8.50;4.00
65574;PMS5003;52216;54.942;73.394;2023-02-28T16:15:07;10.75;9.50;4.00
65574;PMS5003;52216;54.942;73.394;2023-02-28T16:18:22;13.00;8.00;3.00
65574;PMS5003;52216;54.942;73.394;2023-02-28T16:21:26;11.00;7.00;3.00
65574;PMS5003;52216;54.942;73.394;2023-02-28T16:24:30;6.75;6.00;3.00
65574;PMS5003;52216;54.942;73.394;2023-02-28T16:27:43;6.00;5.00;2.00
65574;PMS5003;52216;54.942;73.394;2023-02-28T16:30:52;8.00;6.00;3.00
65574;PMS5003;52216;54.942;73.394;2023-02-28T16:33:58;9.00;7.50;4.00
65574;PMS5003;52216;54.942;73.394;2023-02-28T16:37:01;8.00;8.00;3.00
65574;PMS5003;52216;54.942;73.394;2023-02-28T16:40:05;10.00;6.00;2.50
65574;PMS5003;52216;54.942;73.394;2023-02-28T16:43:52;11.11;8.00;4.00
65574;PMS5003;52216;54.942;73.394;2023-02-28T16:47:08;9.25;8.00;3.00
65574;PMS5003;52216;54.942;73.394;2023-02-28T16:50:23;11.00;8.00;2.00
65574;PMS5003;52216;54.942;73.394;2023-02-28T16:53:50;9.50;7.00;1.50
65574;PMS5003;52216;54.942;73.394;2023-02-28T16:56:55;8.75;7.00;2.00
65574;PMS5003;52216;54.942;73.394;2023-02-28T16:59:58;8.00;7.50;3.00
65574;PMS5003;52216;54.942;73.394;2023-02-28T17:03:02;8.00;6.25;3.00
65574;PMS5003;52216;54.942;73.394;2023-02-28T17:06:06;8.00;7.50;3.00
65574;PMS5003;52216;54.942;73.394;2023-02-28T17:09:17;8.00;8.00;2.75
65574;PMS5003;52216;54.942;73.394;2023-02-28T17:12:21;9.00;6.00;3.00
65574;PMS5003;52216;54.942;73.394;2023-02-28T17:15:25;8.00;5.00;2.00
65574;PMS5003;52216;54.942;73.394;2023-02-28T17:18:28;8.00;8.00;2.00
65574;PMS5003;52216;54.942;73.394;2023-02-28T17:21:42;11.50;8.25;2.50
65574;PMS5003;52216;54.942;73.394;2023-02-28T17:24:53;12.00;8.00;3.00
65574;PMS5003;52216;54.942;73.394;2023-02-28T17:28:01;12.00;11.00;4.00
65574;PMS5003;52216;54.942;73.394;2023-02-28T17:31:04;14.00;11.00;5.00
65574;PMS5003;52216;54.942;73.394;2023-02-28T17:34:08;15.00;13.00;5.00
65574;PMS5003;52216;54.942;73.394;2023-02-28T17:37:11;20.00;19.50;11.00
65574;PMS5003;52216;54.942;73.394;2023-02-28T17:40:16;16.50;15.50;7.25
65574;PMS5003;52216;54.942;73.394;2023-02-28T17:43:20;16.75;16.00;6.00
65574;PMS5003;52216;54.942;73.394;2023-02-28T17:46:25;17.00;15.00;7.33
65574;PMS5003;52216;54.942;73.394;2023-02-28T17:49:29;17.00;14.00;7.00
65574;PMS5003;52216;54.942;73.394;2023-02-28T17:52:31;18.00;16.00;7.00
65574;PMS5003;52216;54.942;73.394;2023-02-28T17:55:48;16.00;14.25;5.00
65574;PMS5003;52216;54.942;73.394;2023-02-28T17:58:53;16.00;14.00;5.00
65574;PMS5003;52216;54.942;73.394;2023-02-28T18:01:57;14.25;13.00;5.00
65574;PMS5003;52216;54.942;73.394;2023-02-28T18:05:00;16.00;14.00;5.25
65574;PMS5003;52216;54.942;73.394;2023-02-28T18:08:07;14.00;13.00;4.00
65574;PMS5003;52216;54.942;73.394;2023-02-28T18:11:12;15.00;13.00;4.25
65574;PMS5003;52216;54.942;73.394;2023-02-28T18:14:20;11.00;11.00;4.00
65574;PMS5003;52216;54.942;73.394;2023-02-28T18:17:28;11.00;10.00;4.50
65574;PMS5003;52216;54.942;73.394;2023-02-28T18:20:41;13.00;10.00;5.00
65574;PMS5003;52216;54.942;73.394;2023-02-28T18:23:48;14.00;11.00;5.00
65574;PMS5003;52216;54.942;73.394;2023-02-28T18:26:50;14.00;11.00;5.00
65574;PMS5003;52216;54.942;73.394;2023-02-28T18:29:53;14.00;11.00;5.00
65574;PMS5003;52216;54.942;73.394;2023-02-28T18:33:05;11.00;11.00;5.00
65574;PMS5003;52216;54.942;73.394;2023-02-28T18:36:15;12.00;11.00;3.00
65574;PMS5003;52216;54.942;73.394;2023-02-28T18:39:17;14.00;11.00;5.00
65574;PMS5003;52216;54.942;73.394;2023-02-28T18:42:19;13.00;11.00;5.00
65574;PMS5003;52216;54.942;73.394;2023-02-28T18:45:23;14.00;11.00;5.00
65574;PMS5003;52216;54.942;73.394;2023-02-28T18:48:31;13.00;12.00;3.00
65574;PMS5003;52216;54.942;73.394;2023-02-28T18:51:34;13.25;11.25;4.00
65574;PMS5003;52216;54.942;73.394;2023-02-28T18:54:38;13.00;11.00;5.00
65574;PMS5003;52216;54.942;73.394;2023-02-28T18:57:50;13.00;13.00;4.00
65574;PMS5003;52216;54.942;73.394;2023-02-28T19:00:53;13.00;11.00;4.00
65574;PMS5003;52216;54.942;73.394;2023-02-28T19:03:56;13.00;10.00;4.00
65574;PMS5003;52216;54.942;73.394;2023-02-28T19:07:01;11.00;8.00;4.00
65574;PMS5003;52216;54.942;73.394;2023-02-28T19:10:03;13.00;9.00;4.00
65574;PMS5003;52216;54.942;73.394;2023-02-28T19:13:06;12.00;8.00;3.75
65574;PMS5003;52216;54.942;73.394;2023-02-28T19:16:10;11.00;6.75;2.00
65574;PMS5003;52216;54.942;73.394;2023-02-28T19:19:12;10.00;7.33;2.00
65574;PMS5003;52216;54.942;73.394;2023-02-28T19:22:25;8.00;7.00;3.00
65574;PMS5003;52216;54.942;73.394;2023-02-28T19:25:29;9.75;6.00;3.00
65574;PMS5003;52216;54.942;73.394;2023-02-28T19:28:33;7.25;6.00;2.00
65574;PMS5003;52216;54.942;73.394;2023-02-28T19:31:36;8.00;8.00;3.25
65574;PMS5003;52216;54.942;73.394;2023-02-28T19:34:38;9.00;6.00;3.00
65574;PMS5003;52216;54.942;73.394;2023-02-28T19:37:41;11.00;6.00;2.33
65574;PMS5003;52216;54.942;73.394;2023-02-28T19:40:44;8.00;5.50;2.25
65574;PMS5003;52216;54.942;73.394;2023-02-28T19:43:48;6.25;6.25;2.00
65574;PMS5003;52216;54.942;73.394;2023-02-28T19:46:50;5.00;5.00;2.00
65574;PMS5003;52216;54.942;73.394;2023-02-28T19:50:16;7.00;6.00;2.50
65574;PMS5003;52216;54.942;73.394;2023-02-28T19:53:19;8.00;6.00;2.00
65574;PMS5003;52216;54.942;73.394;2023-02-28T19:56:22;6.00;4.00;2.00
65574;PMS5003;52216;54.942;73.394;2023-02-28T19:59:25;5.50;5.00;2.00
65574;PMS5003;52216;54.942;73.394;2023-02-28T20:02:29;5.75;5.00;2.00